sensor_id;sensor_type;location;lat;lon;timestamp;temperature;humidity
13310;DHT22;6723;48.256;16.402;2023-03-23T00:01:04;11.30;91.10
13310;DHT22;6723;48.256;16.402;2023-03-23T00:03:30;11.40;91.30
13310;DHT22;6723;48.256;16.402;2023-03-23T00:05:59;11.40;91.30
13310;DHT22;6723;48.256;16.402;2023-03-23T00:08:41;11.40;91.40
13310;DHT22;6723;48.256;16.402;2023-03-23T00:11:17;11.30;91.40
13310;DHT22;6723;48.256;16.402;2023-03-23T00:13:47;11.20;91.40
13310;DHT22;6723;48.256;16.402;2023-03-23T00:16:22;11.20;91.60
13310;DHT22;6723;48.256;16.402;2023-03-23T00:18:58;11.20;91.70
13310;DHT22;6723;48.256;16.402;2023-03-23T00:21:27;11.10;91.70
13310;DHT22;6723;48.256;16.402;2023-03-23T00:26:38;10.90;91.90
13310;DHT22;6723;48.256;16.402;2023-03-23T00:29:17;10.90;92.20
13310;DHT22;6723;48.256;16.402;2023-03-23T00:31:45;10.80;92.20
13310;DHT22;6723;48.256;16.402;2023-03-23T00:34:23;10.80;92.30
13310;DHT22;6723;48.256;16.402;2023-03-23T00:36:52;10.80;92.60
13310;DHT22;6723;48.256;16.402;2023-03-23T00:39:26;10.80;92.80
13310;DHT22;6723;48.256;16.402;2023-03-23T00:41:53;10.80;93.10
13310;DHT22;6723;48.256;16.402;2023-03-23T00:44:30;10.80;93.20
13310;DHT22;6723;48.256;16.402;2023-03-23T00:46:57;10.70;93.40
13310;DHT22;6723;48.256;16.402;2023-03-23T00:49:25;10.80;93.40
13310;DHT22;6723;48.256;16.402;2023-03-23T00:51:56;10.80;93.40
13310;DHT22;6723;48.256;16.402;2023-03-23T00:54:23;10.70;93.40
13310;DHT22;6723;48.256;16.402;2023-03-23T00:56:49;10.80;93.60
13310;DHT22;6723;48.256;16.402;2023-03-23T00:59:15;10.80;93.60
13310;DHT22;6723;48.256;16.402;2023-03-23T01:01:41;10.70;93.50
13310;DHT22;6723;48.256;16.402;2023-03-23T01:04:08;10.70;93.60
13310;DHT22;6723;48.256;16.402;2023-03-23T01:06:39;10.70;93.70
13310;DHT22;6723;48.256;16.402;2023-03-23T01:09:15;10.70;93.70
13310;DHT22;6723;48.256;16.402;2023-03-23T01:11:47;10.70;93.80
13310;DHT22;6723;48.256;16.402;2023-03-23T01:14:14;10.60;94.00
13310;DHT22;6723;48.256;16.402;2023-03-23T01:16:41;10.60;94.10
13310;DHT22;6723;48.256;16.402;2023-03-23T01:19:07;10.50;94.20
13310;DHT22;6723;48.256;16.402;2023-03-23T01:21:33;10.40;94.20
13310;DHT22;6723;48.256;16.402;2023-03-23T01:23:59;10.40;94.50
13310;DHT22;6723;48.256;16.402;2023-03-23T01:26:26;10.40;94.60
13310;DHT22;6723;48.256;16.402;2023-03-23T01:28:53;10.30;94.90
13310;DHT22;6723;48.256;16.402;2023-03-23T01:31:22;10.30;95.00
13310;DHT22;6723;48.256;16.402;2023-03-23T01:33:49;10.30;95.10
13310;DHT22;6723;48.256;16.402;2023-03-23T01:36:23;10.30;95.40
13310;DHT22;6723;48.256;16.402;2023-03-23T01:38:50;10.20;95.50
13310;DHT22;6723;48.256;16.402;2023-03-23T01:41:17;10.20;95.70
13310;DHT22;6723;48.256;16.402;2023-03-23T01:43:59;10.20;95.80
13310;DHT22;6723;48.256;16.402;2023-03-23T01:46:28;10.10;96.00
13310;DHT22;6723;48.256;16.402;2023-03-23T01:48:57;10.20;96.40
13310;DHT22;6723;48.256;16.402;2023-03-23T01:51:24;10.10;96.80
13310;DHT22;6723;48.256;16.402;2023-03-23T01:53:55;10.10;96.90
13310;DHT22;6723;48.256;16.402;2023-03-23T01:56:27;10.00;97.10
13310;DHT22;6723;48.256;16.402;2023-03-23T01:58:55;9.90;98.00
13310;DHT22;6723;48.256;16.402;2023-03-23T02:01:22;9.90;98.20
13310;DHT22;6723;48.256;16.402;2023-03-23T02:03:54;9.90;98.10
13310;DHT22;6723;48.256;16.402;2023-03-23T02:06:22;10.00;97.70
13310;DHT22;6723;48.256;16.402;2023-03-23T02:08:49;10.00;97.40
13310;DHT22;6723;48.256;16.402;2023-03-23T02:11:21;9.90;97.70
13310;DHT22;6723;48.256;16.402;2023-03-23T02:13:48;9.90;97.70
13310;DHT22;6723;48.256;16.402;2023-03-23T02:18:53;9.90;98.20
13310;DHT22;6723;48.256;16.402;2023-03-23T02:22:02;9.80;97.90
13310;DHT22;6723;48.256;16.402;2023-03-23T02:24:58;9.80;98.00
13310;DHT22;6723;48.256;16.402;2023-03-23T02:35:54;9.80;97.90
13310;DHT22;6723;48.256;16.402;2023-03-23T02:38:33;9.80;98.00
13310;DHT22;6723;48.256;16.402;2023-03-23T02:41:03;9.80;98.10
13310;DHT22;6723;48.256;16.402;2023-03-23T02:43:34;9.70;98.00
13310;DHT22;6723;48.256;16.402;2023-03-23T02:46:05;9.70;98.10
13310;DHT22;6723;48.256;16.402;2023-03-23T02:48:33;9.70;98.20
13310;DHT22;6723;48.256;16.402;2023-03-23T02:51:01;9.70;98.40
13310;DHT22;6723;48.256;16.402;2023-03-23T02:53:29;9.70;98.40
13310;DHT22;6723;48.256;16.402;2023-03-23T02:55:57;9.60;98.40
13310;DHT22;6723;48.256;16.402;2023-03-23T02:58:27;9.70;98.50
13310;DHT22;6723;48.256;16.402;2023-03-23T03:00:54;9.60;98.50
13310;DHT22;6723;48.256;16.402;2023-03-23T03:03:30;9.60;98.70
13310;DHT22;6723;48.256;16.402;2023-03-23T03:06:10;9.60;98.80
13310;DHT22;6723;48.256;16.402;2023-03-23T03:11:15;9.60;99.00
13310;DHT22;6723;48.256;16.402;2023-03-23T03:13:50;9.60;98.90
13310;DHT22;6723;48.256;16.402;2023-03-23T03:19:03;9.40;98.90
13310;DHT22;6723;48.256;16.402;2023-03-23T03:21:34;9.40;98.90
13310;DHT22;6723;48.256;16.402;2023-03-23T03:24:03;9.30;99.20
13310;DHT22;6723;48.256;16.402;2023-03-23T03:26:31;9.30;99.40
13310;DHT22;6723;48.256;16.402;2023-03-23T03:29:00;9.30;99.60
13310;DHT22;6723;48.256;16.402;2023-03-23T03:31:34;9.20;99.70
13310;DHT22;6723;48.256;16.402;2023-03-23T03:34:05;9.20;99.80
13310;DHT22;6723;48.256;16.402;2023-03-23T03:36:33;9.20;99.90
13310;DHT22;6723;48.256;16.402;2023-03-23T03:39:08;9.20;99.90
13310;DHT22;6723;48.256;16.402;2023-03-23T03:41:36;9.20;99.90
13310;DHT22;6723;48.256;16.402;2023-03-23T03:44:06;9.20;99.90
13310;DHT22;6723;48.256;16.402;2023-03-23T03:46:32;9.20;99.90
13310;DHT22;6723;48.256;16.402;2023-03-23T03:49:05;9.20;99.90
13310;DHT22;6723;48.256;16.402;2023-03-23T03:51:33;9.20;99.90
13310;DHT22;6723;48.256;16.402;2023-03-23T03:54:00;9.20;99.90
13310;DHT22;6723;48.256;16.402;2023-03-23T03:56:26;9.20;99.90
13310;DHT22;6723;48.256;16.402;2023-03-23T03:58:52;9.20;99.90
13310;DHT22;6723;48.256;16.402;2023-03-23T04:01:20;9.20;99.90
13310;DHT22;6723;48.256;16.402;2023-03-23T04:03:49;9.10;99.90
13310;DHT22;6723;48.256;16.402;2023-03-23T04:06:15;9.10;99.90
13310;DHT22;6723;48.256;16.402;2023-03-23T04:08:43;9.00;99.90
13310;DHT22;6723;48.256;16.402;2023-03-23T04:11:12;9.00;99.90
13310;DHT22;6723;48.256;16.402;2023-03-23T04:13:39;9.00;99.90
13310;DHT22;6723;48.256;16.402;2023-03-23T04:16:06;9.00;99.90
13310;DHT22;6723;48.256;16.402;2023-03-23T04:18:33;9.00;99.90
13310;DHT22;6723;48.256;16.402;2023-03-23T04:21:00;9.00;99.90
13310;DHT22;6723;48.256;16.402;2023-03-23T04:23:28;9.00;99.90
13310;DHT22;6723;48.256;16.402;2023-03-23T04:25:56;9.00;99.90
13310;DHT22;6723;48.256;16.402;2023-03-23T04:28:26;9.00;99.90
13310;DHT22;6723;48.256;16.402;2023-03-23T04:30:54;9.00;99.90
13310;DHT22;6723;48.256;16.402;2023-03-23T04:33:25;9.00;99.90
13310;DHT22;6723;48.256;16.402;2023-03-23T04:35:53;9.00;99.90
13310;DHT22;6723;48.256;16.402;2023-03-23T04:38:21;8.80;99.90
13310;DHT22;6723;48.256;16.402;2023-03-23T04:40:50;8.80;99.90
13310;DHT22;6723;48.256;16.402;2023-03-23T04:43:23;8.80;99.90
13310;DHT22;6723;48.256;16.402;2023-03-23T04:45:54;8.80;99.90
13310;DHT22;6723;48.256;16.402;2023-03-23T04:48:26;8.80;99.90
13310;DHT22;6723;48.256;16.402;2023-03-23T04:50:53;8.80;99.90
13310;DHT22;6723;48.256;16.402;2023-03-23T04:53:19;8.80;99.90
13310;DHT22;6723;48.256;16.402;2023-03-23T04:55:46;8.80;99.90
13310;DHT22;6723;48.256;16.402;2023-03-23T04:58:13;8.70;99.90
13310;DHT22;6723;48.256;16.402;2023-03-23T05:00:41;8.70;99.90
13310;DHT22;6723;48.256;16.402;2023-03-23T05:03:12;8.70;99.90
13310;DHT22;6723;48.256;16.402;2023-03-23T05:05:43;8.70;99.90
13310;DHT22;6723;48.256;16.402;2023-03-23T05:08:15;8.80;99.90
13310;DHT22;6723;48.256;16.402;2023-03-23T05:10:42;8.80;99.90
13310;DHT22;6723;48.256;16.402;2023-03-23T05:13:07;8.70;99.90
13310;DHT22;6723;48.256;16.402;2023-03-23T05:15:33;8.70;99.90
13310;DHT22;6723;48.256;16.402;2023-03-23T05:17:59;8.80;99.90
13310;DHT22;6723;48.256;16.402;2023-03-23T05:20:25;8.90;99.90
13310;DHT22;6723;48.256;16.402;2023-03-23T05:22:50;8.90;99.90
13310;DHT22;6723;48.256;16.402;2023-03-23T05:25:17;9.00;99.90
13310;DHT22;6723;48.256;16.402;2023-03-23T05:27:48;9.00;99.90
13310;DHT22;6723;48.256;16.402;2023-03-23T05:30:19;9.10;99.90
13310;DHT22;6723;48.256;16.402;2023-03-23T05:32:49;9.10;99.90
13310;DHT22;6723;48.256;16.402;2023-03-23T05:35:17;9.20;99.90
13310;DHT22;6723;48.256;16.402;2023-03-23T05:37:44;9.30;99.90
13310;DHT22;6723;48.256;16.402;2023-03-23T05:40:11;9.40;99.90
13310;DHT22;6723;48.256;16.402;2023-03-23T05:42:39;9.50;99.90
13310;DHT22;6723;48.256;16.402;2023-03-23T05:45:11;9.70;99.90
13310;DHT22;6723;48.256;16.402;2023-03-23T05:47:39;9.90;99.90
13310;DHT22;6723;48.256;16.402;2023-03-23T05:50:07;10.00;99.90
13310;DHT22;6723;48.256;16.402;2023-03-23T05:52:36;10.10;99.90
13310;DHT22;6723;48.256;16.402;2023-03-23T05:55:03;10.30;99.90
13310;DHT22;6723;48.256;16.402;2023-03-23T05:57:30;10.40;99.90
13310;DHT22;6723;48.256;16.402;2023-03-23T05:59:56;10.50;99.90
13310;DHT22;6723;48.256;16.402;2023-03-23T06:02:23;10.60;99.50
13310;DHT22;6723;48.256;16.402;2023-03-23T06:04:50;10.70;99.40
13310;DHT22;6723;48.256;16.402;2023-03-23T06:07:23;10.90;99.10
13310;DHT22;6723;48.256;16.402;2023-03-23T06:09:52;11.00;99.50
13310;DHT22;6723;48.256;16.402;2023-03-23T06:12:19;11.20;99.90
13310;DHT22;6723;48.256;16.402;2023-03-23T06:14:48;11.30;99.90
13310;DHT22;6723;48.256;16.402;2023-03-23T06:17:15;11.40;99.20
13310;DHT22;6723;48.256;16.402;2023-03-23T06:19:43;11.50;98.70
13310;DHT22;6723;48.256;16.402;2023-03-23T06:22:09;11.60;98.00
13310;DHT22;6723;48.256;16.402;2023-03-23T06:24:36;11.60;97.60
13310;DHT22;6723;48.256;16.402;2023-03-23T06:27:02;11.70;97.30
13310;DHT22;6723;48.256;16.402;2023-03-23T06:29:29;11.90;97.30
13310;DHT22;6723;48.256;16.402;2023-03-23T06:31:58;11.90;97.00
13310;DHT22;6723;48.256;16.402;2023-03-23T06:34:25;12.00;96.80
13310;DHT22;6723;48.256;16.402;2023-03-23T06:36:51;12.10;96.60
13310;DHT22;6723;48.256;16.402;2023-03-23T06:39:18;12.30;96.30
13310;DHT22;6723;48.256;16.402;2023-03-23T06:41:44;12.20;95.80
13310;DHT22;6723;48.256;16.402;2023-03-23T06:44:10;12.20;96.20
13310;DHT22;6723;48.256;16.402;2023-03-23T06:46:39;12.30;95.60
13310;DHT22;6723;48.256;16.402;2023-03-23T06:49:07;12.20;95.60
13310;DHT22;6723;48.256;16.402;2023-03-23T06:51:34;12.70;95.30
13310;DHT22;6723;48.256;16.402;2023-03-23T06:54:00;12.80;95.20
13310;DHT22;6723;48.256;16.402;2023-03-23T06:56:29;13.00;94.20
13310;DHT22;6723;48.256;16.402;2023-03-23T06:58:55;13.30;94.40
13310;DHT22;6723;48.256;16.402;2023-03-23T07:01:21;13.70;94.00
13310;DHT22;6723;48.256;16.402;2023-03-23T07:03:47;13.60;92.90
13310;DHT22;6723;48.256;16.402;2023-03-23T07:06:14;13.90;92.50
13310;DHT22;6723;48.256;16.402;2023-03-23T07:08:42;13.50;92.50
13310;DHT22;6723;48.256;16.402;2023-03-23T07:11:08;13.30;92.90
13310;DHT22;6723;48.256;16.402;2023-03-23T07:13:35;13.40;93.20
13310;DHT22;6723;48.256;16.402;2023-03-23T07:16:05;13.50;92.60
13310;DHT22;6723;48.256;16.402;2023-03-23T07:18:31;13.50;92.70
13310;DHT22;6723;48.256;16.402;2023-03-23T07:20:57;13.70;92.40
13310;DHT22;6723;48.256;16.402;2023-03-23T07:23:23;13.70;92.50
13310;DHT22;6723;48.256;16.402;2023-03-23T07:25:48;13.70;92.20
13310;DHT22;6723;48.256;16.402;2023-03-23T07:28:14;13.70;92.00
13310;DHT22;6723;48.256;16.402;2023-03-23T07:30:41;13.60;92.00
13310;DHT22;6723;48.256;16.402;2023-03-23T07:33:08;13.50;92.10
13310;DHT22;6723;48.256;16.402;2023-03-23T07:35:34;13.60;92.10
13310;DHT22;6723;48.256;16.402;2023-03-23T07:38:01;13.90;92.00
13310;DHT22;6723;48.256;16.402;2023-03-23T07:40:28;13.80;91.80
13310;DHT22;6723;48.256;16.402;2023-03-23T07:42:56;13.80;91.70
13310;DHT22;6723;48.256;16.402;2023-03-23T07:45:23;14.00;91.40
13310;DHT22;6723;48.256;16.402;2023-03-23T07:47:49;14.20;91.00
13310;DHT22;6723;48.256;16.402;2023-03-23T07:50:15;14.40;90.50
13310;DHT22;6723;48.256;16.402;2023-03-23T07:52:41;14.50;90.30
13310;DHT22;6723;48.256;16.402;2023-03-23T07:55:10;14.60;90.50
13310;DHT22;6723;48.256;16.402;2023-03-23T07:57:46;14.80;90.40
13310;DHT22;6723;48.256;16.402;2023-03-23T08:00:15;15.10;89.10
13310;DHT22;6723;48.256;16.402;2023-03-23T08:02:45;15.20;89.10
13310;DHT22;6723;48.256;16.402;2023-03-23T08:05:11;15.30;88.00
13310;DHT22;6723;48.256;16.402;2023-03-23T08:07:39;15.10;89.10
13310;DHT22;6723;48.256;16.402;2023-03-23T08:10:07;15.10;88.80
13310;DHT22;6723;48.256;16.402;2023-03-23T08:12:37;15.00;88.70
13310;DHT22;6723;48.256;16.402;2023-03-23T08:15:05;15.00;87.70
13310;DHT22;6723;48.256;16.402;2023-03-23T08:17:32;14.90;88.50
13310;DHT22;6723;48.256;16.402;2023-03-23T08:20:00;14.90;89.00
13310;DHT22;6723;48.256;16.402;2023-03-23T08:22:26;15.00;89.20
13310;DHT22;6723;48.256;16.402;2023-03-23T08:24:54;14.90;89.40
13310;DHT22;6723;48.256;16.402;2023-03-23T08:27:20;14.80;89.60
13310;DHT22;6723;48.256;16.402;2023-03-23T08:29:47;14.90;90.00
13310;DHT22;6723;48.256;16.402;2023-03-23T08:32:13;15.10;90.00
13310;DHT22;6723;48.256;16.402;2023-03-23T08:34:42;15.10;89.90
13310;DHT22;6723;48.256;16.402;2023-03-23T08:37:08;15.10;89.90
13310;DHT22;6723;48.256;16.402;2023-03-23T08:39:35;15.00;90.70
13310;DHT22;6723;48.256;16.402;2023-03-23T08:42:03;15.30;91.20
13310;DHT22;6723;48.256;16.402;2023-03-23T08:44:29;15.20;90.80
13310;DHT22;6723;48.256;16.402;2023-03-23T08:46:55;15.20;90.90
13310;DHT22;6723;48.256;16.402;2023-03-23T08:49:23;15.60;91.10
13310;DHT22;6723;48.256;16.402;2023-03-23T08:51:48;15.90;90.10
13310;DHT22;6723;48.256;16.402;2023-03-23T08:54:14;16.40;88.20
13310;DHT22;6723;48.256;16.402;2023-03-23T08:56:40;17.00;87.10
13310;DHT22;6723;48.256;16.402;2023-03-23T08:59:10;17.50;85.80
13310;DHT22;6723;48.256;16.402;2023-03-23T09:01:36;18.10;85.20
13310;DHT22;6723;48.256;16.402;2023-03-23T09:04:01;18.80;83.30
13310;DHT22;6723;48.256;16.402;2023-03-23T09:06:28;20.00;81.10
13310;DHT22;6723;48.256;16.402;2023-03-23T09:08:54;20.60;78.40
13310;DHT22;6723;48.256;16.402;2023-03-23T09:11:24;20.70;77.90
13310;DHT22;6723;48.256;16.402;2023-03-23T09:13:50;20.90;78.30
13310;DHT22;6723;48.256;16.402;2023-03-23T09:16:28;21.30;77.00
13310;DHT22;6723;48.256;16.402;2023-03-23T09:18:55;21.70;76.00
13310;DHT22;6723;48.256;16.402;2023-03-23T09:21:23;21.80;75.50
13310;DHT22;6723;48.256;16.402;2023-03-23T09:23:49;22.00;74.40
13310;DHT22;6723;48.256;16.402;2023-03-23T09:26:15;22.20;74.30
13310;DHT22;6723;48.256;16.402;2023-03-23T09:28:41;22.80;73.40
13310;DHT22;6723;48.256;16.402;2023-03-23T09:31:06;23.00;72.00
13310;DHT22;6723;48.256;16.402;2023-03-23T09:33:32;23.40;71.70
13310;DHT22;6723;48.256;16.402;2023-03-23T09:35:58;23.30;70.20
13310;DHT22;6723;48.256;16.402;2023-03-23T09:38:24;23.60;71.00
13310;DHT22;6723;48.256;16.402;2023-03-23T09:43:29;24.30;69.40
13310;DHT22;6723;48.256;16.402;2023-03-23T09:48:54;23.80;69.10
13310;DHT22;6723;48.256;16.402;2023-03-23T09:54:29;23.80;68.70
13310;DHT22;6723;48.256;16.402;2023-03-23T09:57:00;24.30;67.90
13310;DHT22;6723;48.256;16.402;2023-03-23T10:01:58;23.70;67.50
13310;DHT22;6723;48.256;16.402;2023-03-23T10:04:32;23.40;66.90
13310;DHT22;6723;48.256;16.402;2023-03-23T10:07:16;22.30;68.20
13310;DHT22;6723;48.256;16.402;2023-03-23T10:09:44;22.60;68.70
13310;DHT22;6723;48.256;16.402;2023-03-23T10:21:01;24.60;65.90
13310;DHT22;6723;48.256;16.402;2023-03-23T10:25:46;23.80;65.80
13310;DHT22;6723;48.256;16.402;2023-03-23T10:28:18;24.30;67.30
13310;DHT22;6723;48.256;16.402;2023-03-23T10:30:56;25.10;67.00
13310;DHT22;6723;48.256;16.402;2023-03-23T10:33:41;25.80;65.80
13310;DHT22;6723;48.256;16.402;2023-03-23T10:39:13;25.70;64.40
13310;DHT22;6723;48.256;16.402;2023-03-23T10:41:40;25.60;64.50
13310;DHT22;6723;48.256;16.402;2023-03-23T10:44:22;25.80;64.50
13310;DHT22;6723;48.256;16.402;2023-03-23T10:47:06;25.90;63.90
13310;DHT22;6723;48.256;16.402;2023-03-23T10:49:42;25.10;63.20
13310;DHT22;6723;48.256;16.402;2023-03-23T10:52:31;25.10;63.60
13310;DHT22;6723;48.256;16.402;2023-03-23T10:55:15;24.90;64.00
13310;DHT22;6723;48.256;16.402;2023-03-23T10:58:12;24.40;65.30
13310;DHT22;6723;48.256;16.402;2023-03-23T11:00:44;25.10;64.70
13310;DHT22;6723;48.256;16.402;2023-03-23T11:08:18;26.80;62.80
13310;DHT22;6723;48.256;16.402;2023-03-23T11:10:54;26.40;61.90
13310;DHT22;6723;48.256;16.402;2023-03-23T11:13:22;27.40;60.90
13310;DHT22;6723;48.256;16.402;2023-03-23T11:15:50;27.50;60.30
13310;DHT22;6723;48.256;16.402;2023-03-23T11:20:51;25.80;62.40
13310;DHT22;6723;48.256;16.402;2023-03-23T11:23:27;26.60;62.10
13310;DHT22;6723;48.256;16.402;2023-03-23T11:25:55;26.70;61.10
13310;DHT22;6723;48.256;16.402;2023-03-23T11:28:25;26.30;61.50
13310;DHT22;6723;48.256;16.402;2023-03-23T11:30:54;26.70;61.30
13310;DHT22;6723;48.256;16.402;2023-03-23T11:33:20;25.70;61.10
13310;DHT22;6723;48.256;16.402;2023-03-23T11:35:46;24.90;62.50
13310;DHT22;6723;48.256;16.402;2023-03-23T11:38:19;25.40;64.20
13310;DHT22;6723;48.256;16.402;2023-03-23T11:40:50;26.30;63.10
13310;DHT22;6723;48.256;16.402;2023-03-23T11:43:24;25.70;61.30
13310;DHT22;6723;48.256;16.402;2023-03-23T11:46:11;25.80;62.00
13310;DHT22;6723;48.256;16.402;2023-03-23T11:49:01;27.10;62.20
13310;DHT22;6723;48.256;16.402;2023-03-23T11:52:03;27.90;61.00
13310;DHT22;6723;48.256;16.402;2023-03-23T11:54:34;28.00;58.50
13310;DHT22;6723;48.256;16.402;2023-03-23T11:57:08;28.00;59.50
13310;DHT22;6723;48.256;16.402;2023-03-23T11:59:55;27.70;58.70
13310;DHT22;6723;48.256;16.402;2023-03-23T12:31:11;23.70;62.60
13310;DHT22;6723;48.256;16.402;2023-03-23T12:34:15;23.20;62.60
13310;DHT22;6723;48.256;16.402;2023-03-23T12:37:10;23.10;62.70
13310;DHT22;6723;48.256;16.402;2023-03-23T12:39:53;23.40;62.30
13310;DHT22;6723;48.256;16.402;2023-03-23T12:50:18;23.50;62.20
13310;DHT22;6723;48.256;16.402;2023-03-23T12:53:10;23.40;62.20
13310;DHT22;6723;48.256;16.402;2023-03-23T12:57:00;23.30;62.40
13310;DHT22;6723;48.256;16.402;2023-03-23T13:02:41;23.20;62.90
13310;DHT22;6723;48.256;16.402;2023-03-23T13:04:44;23.20;63.20
13310;DHT22;6723;48.256;16.402;2023-03-23T13:07:16;23.30;63.20
13310;DHT22;6723;48.256;16.402;2023-03-23T13:09:54;24.00;63.00
13310;DHT22;6723;48.256;16.402;2023-03-23T13:12:21;24.40;60.80
13310;DHT22;6723;48.256;16.402;2023-03-23T13:17:37;24.40;62.60
13310;DHT22;6723;48.256;16.402;2023-03-23T13:20:12;23.90;64.10
13310;DHT22;6723;48.256;16.402;2023-03-23T13:28:28;23.90;65.00
13310;DHT22;6723;48.256;16.402;2023-03-23T13:31:03;23.40;65.00
13310;DHT22;6723;48.256;16.402;2023-03-23T13:33:34;23.40;65.20
13310;DHT22;6723;48.256;16.402;2023-03-23T13:36:09;23.70;65.10
13310;DHT22;6723;48.256;16.402;2023-03-23T13:38:36;23.50;64.30
13310;DHT22;6723;48.256;16.402;2023-03-23T13:41:11;23.10;64.50
13310;DHT22;6723;48.256;16.402;2023-03-23T13:43:40;22.60;65.20
13310;DHT22;6723;48.256;16.402;2023-03-23T13:49:20;23.00;64.00
13310;DHT22;6723;48.256;16.402;2023-03-23T13:52:15;22.80;64.20
13310;DHT22;6723;48.256;16.402;2023-03-23T13:54:44;22.80;64.20
13310;DHT22;6723;48.256;16.402;2023-03-23T13:57:34;22.60;64.50
13310;DHT22;6723;48.256;16.402;2023-03-23T14:02:51;22.10;65.80
13310;DHT22;6723;48.256;16.402;2023-03-23T14:11:17;22.30;64.50
13310;DHT22;6723;48.256;16.402;2023-03-23T14:16:31;22.90;64.30
13310;DHT22;6723;48.256;16.402;2023-03-23T14:19:02;22.90;64.30
13310;DHT22;6723;48.256;16.402;2023-03-23T14:21:37;22.60;64.00
13310;DHT22;6723;48.256;16.402;2023-03-23T14:24:10;22.70;64.50
13310;DHT22;6723;48.256;16.402;2023-03-23T14:26:36;22.80;64.90
13310;DHT22;6723;48.256;16.402;2023-03-23T14:29:04;22.80;64.30
13310;DHT22;6723;48.256;16.402;2023-03-23T14:31:31;23.20;63.80
13310;DHT22;6723;48.256;16.402;2023-03-23T14:34:21;23.50;63.40
13310;DHT22;6723;48.256;16.402;2023-03-23T14:36:48;23.60;63.00
13310;DHT22;6723;48.256;16.402;2023-03-23T14:39:33;23.60;63.00
13310;DHT22;6723;48.256;16.402;2023-03-23T14:42:26;23.70;62.10
13310;DHT22;6723;48.256;16.402;2023-03-23T14:44:53;23.60;62.60
13310;DHT22;6723;48.256;16.402;2023-03-23T14:47:30;23.50;62.40
13310;DHT22;6723;48.256;16.402;2023-03-23T14:49:58;23.70;62.30
13310;DHT22;6723;48.256;16.402;2023-03-23T14:52:27;23.10;62.40
13310;DHT22;6723;48.256;16.402;2023-03-23T14:54:53;23.30;63.20
13310;DHT22;6723;48.256;16.402;2023-03-23T14:57:29;23.20;63.20
13310;DHT22;6723;48.256;16.402;2023-03-23T14:59:55;23.40;63.50
13310;DHT22;6723;48.256;16.402;2023-03-23T15:04:54;23.00;63.60
13310;DHT22;6723;48.256;16.402;2023-03-23T15:07:35;22.80;62.60
13310;DHT22;6723;48.256;16.402;2023-03-23T15:10:06;22.80;63.00
13310;DHT22;6723;48.256;16.402;2023-03-23T15:12:33;22.60;62.60
13310;DHT22;6723;48.256;16.402;2023-03-23T15:15:05;22.60;63.40
13310;DHT22;6723;48.256;16.402;2023-03-23T15:17:35;22.60;63.50
13310;DHT22;6723;48.256;16.402;2023-03-23T15:20:19;22.70;63.00
13310;DHT22;6723;48.256;16.402;2023-03-23T15:22:46;22.70;63.30
13310;DHT22;6723;48.256;16.402;2023-03-23T15:25:19;22.50;62.60
13310;DHT22;6723;48.256;16.402;2023-03-23T15:27:54;22.40;62.90
13310;DHT22;6723;48.256;16.402;2023-03-23T15:33:10;22.30;62.60
13310;DHT22;6723;48.256;16.402;2023-03-23T15:35:38;22.30;62.60
13310;DHT22;6723;48.256;16.402;2023-03-23T15:38:23;22.20;63.20
13310;DHT22;6723;48.256;16.402;2023-03-23T15:40:52;22.00;63.20
13310;DHT22;6723;48.256;16.402;2023-03-23T15:43:54;22.00;63.40
13310;DHT22;6723;48.256;16.402;2023-03-23T15:49:15;21.90;63.80
13310;DHT22;6723;48.256;16.402;2023-03-23T15:51:41;22.00;63.50
13310;DHT22;6723;48.256;16.402;2023-03-23T15:54:12;21.90;63.90
13310;DHT22;6723;48.256;16.402;2023-03-23T15:56:38;22.10;64.10
13310;DHT22;6723;48.256;16.402;2023-03-23T15:59:04;22.10;64.40
13310;DHT22;6723;48.256;16.402;2023-03-23T16:01:30;22.00;64.60
13310;DHT22;6723;48.256;16.402;2023-03-23T16:04:16;21.90;64.70
13310;DHT22;6723;48.256;16.402;2023-03-23T16:06:44;21.90;65.50
13310;DHT22;6723;48.256;16.402;2023-03-23T16:09:15;21.90;65.70
13310;DHT22;6723;48.256;16.402;2023-03-23T16:11:41;21.70;65.50
13310;DHT22;6723;48.256;16.402;2023-03-23T16:14:07;21.50;65.80
13310;DHT22;6723;48.256;16.402;2023-03-23T16:19:05;21.30;66.50
13310;DHT22;6723;48.256;16.402;2023-03-23T16:21:31;21.10;65.40
13310;DHT22;6723;48.256;16.402;2023-03-23T16:23:57;21.10;64.60
13310;DHT22;6723;48.256;16.402;2023-03-23T16:26:23;21.00;63.50
13310;DHT22;6723;48.256;16.402;2023-03-23T16:28:49;20.90;64.40
13310;DHT22;6723;48.256;16.402;2023-03-23T16:31:15;20.80;65.10
13310;DHT22;6723;48.256;16.402;2023-03-23T16:33:41;20.80;65.50
13310;DHT22;6723;48.256;16.402;2023-03-23T16:36:10;20.70;66.10
13310;DHT22;6723;48.256;16.402;2023-03-23T16:38:36;20.60;67.00
13310;DHT22;6723;48.256;16.402;2023-03-23T16:41:06;20.40;66.70
13310;DHT22;6723;48.256;16.402;2023-03-23T16:43:33;20.50;66.80
13310;DHT22;6723;48.256;16.402;2023-03-23T16:45:59;20.40;67.00
13310;DHT22;6723;48.256;16.402;2023-03-23T16:48:26;20.20;67.10
13310;DHT22;6723;48.256;16.402;2023-03-23T16:50:53;20.20;67.60
13310;DHT22;6723;48.256;16.402;2023-03-23T16:53:20;20.10;67.90
13310;DHT22;6723;48.256;16.402;2023-03-23T16:55:46;20.00;68.10
13310;DHT22;6723;48.256;16.402;2023-03-23T16:58:16;20.00;68.20
13310;DHT22;6723;48.256;16.402;2023-03-23T17:00:43;19.90;68.40
13310;DHT22;6723;48.256;16.402;2023-03-23T17:03:09;19.90;68.60
13310;DHT22;6723;48.256;16.402;2023-03-23T17:05:36;19.90;69.60
13310;DHT22;6723;48.256;16.402;2023-03-23T17:08:02;19.90;69.20
13310;DHT22;6723;48.256;16.402;2023-03-23T17:10:29;19.90;69.30
13310;DHT22;6723;48.256;16.402;2023-03-23T17:12:55;19.80;69.60
13310;DHT22;6723;48.256;16.402;2023-03-23T17:15:21;19.70;69.80
13310;DHT22;6723;48.256;16.402;2023-03-23T17:17:49;19.60;70.10
13310;DHT22;6723;48.256;16.402;2023-03-23T17:20:15;19.50;70.40
13310;DHT22;6723;48.256;16.402;2023-03-23T17:22:41;19.50;70.60
13310;DHT22;6723;48.256;16.402;2023-03-23T17:25:08;19.50;70.70
13310;DHT22;6723;48.256;16.402;2023-03-23T17:27:35;19.40;71.10
13310;DHT22;6723;48.256;16.402;2023-03-23T17:30:03;19.40;71.20
13310;DHT22;6723;48.256;16.402;2023-03-23T17:32:28;19.40;71.50
13310;DHT22;6723;48.256;16.402;2023-03-23T17:34:54;19.30;71.70
13310;DHT22;6723;48.256;16.402;2023-03-23T17:37:20;19.30;71.90
13310;DHT22;6723;48.256;16.402;2023-03-23T17:39:46;19.20;72.10
13310;DHT22;6723;48.256;16.402;2023-03-23T17:42:13;19.20;72.40
13310;DHT22;6723;48.256;16.402;2023-03-23T17:44:38;19.20;72.60
13310;DHT22;6723;48.256;16.402;2023-03-23T17:47:05;19.10;72.80
13310;DHT22;6723;48.256;16.402;2023-03-23T17:49:31;19.10;73.00
13310;DHT22;6723;48.256;16.402;2023-03-23T17:51:58;19.00;73.20
13310;DHT22;6723;48.256;16.402;2023-03-23T17:54:25;18.90;73.20
13310;DHT22;6723;48.256;16.402;2023-03-23T17:56:52;18.90;73.40
13310;DHT22;6723;48.256;16.402;2023-03-23T17:59:18;18.90;74.10